sensor_id;sensor_type;location;lat;lon;timestamp;P1;durP1;ratioP1;P2;durP2;ratioP2
14209;SDS011;7188;56.070;12.698;2023-07-31T00:01:45;13.30;;;2.53;;
14209;SDS011;7188;56.070;12.698;2023-07-31T00:04:11;8.73;;;2.33;;
14209;SDS011;7188;56.070;12.698;2023-07-31T00:06:36;9.43;;;2.20;;
14209;SDS011;7188;56.070;12.698;2023-07-31T00:09:02;8.97;;;2.57;;
14209;SDS011;7188;56.070;12.698;2023-07-31T00:11:28;8.47;;;2.67;;
14209;SDS011;7188;56.070;12.698;2023-07-31T00:13:53;11.73;;;2.33;;
14209;SDS011;7188;56.070;12.698;2023-07-31T00:16:19;11.57;;;2.17;;
14209;SDS011;7188;56.070;12.698;2023-07-31T00:18:45;6.40;;;2.53;;
14209;SDS011;7188;56.070;12.698;2023-07-31T00:21:10;9.40;;;2.03;;
14209;SDS011;7188;56.070;12.698;2023-07-31T00:23:36;8.17;;;2.03;;
14209;SDS011;7188;56.070;12.698;2023-07-31T00:26:02;15.33;;;2.57;;
14209;SDS011;7188;56.070;12.698;2023-07-31T00:28:27;11.53;;;3.30;;
14209;SDS011;7188;56.070;12.698;2023-07-31T00:30:53;7.80;;;1.97;;
14209;SDS011;7188;56.070;12.698;2023-07-31T00:36:06;7.80;;;1.90;;
14209;SDS011;7188;56.070;12.698;2023-07-31T00:38:32;9.20;;;2.17;;
14209;SDS011;7188;56.070;12.698;2023-07-31T00:40:58;8.57;;;2.50;;
14209;SDS011;7188;56.070;12.698;2023-07-31T00:43:24;8.80;;;2.40;;
14209;SDS011;7188;56.070;12.698;2023-07-31T00:45:50;10.57;;;1.90;;
14209;SDS011;7188;56.070;12.698;2023-07-31T00:48:15;7.60;;;2.50;;
14209;SDS011;7188;56.070;12.698;2023-07-31T00:50:41;9.43;;;2.03;;
14209;SDS011;7188;56.070;12.698;2023-07-31T00:53:07;12.10;;;2.37;;
14209;SDS011;7188;56.070;12.698;2023-07-31T00:55:33;7.13;;;2.10;;
14209;SDS011;7188;56.070;12.698;2023-07-31T00:57:58;6.73;;;2.37;;
14209;SDS011;7188;56.070;12.698;2023-07-31T01:00:24;7.47;;;2.30;;
14209;SDS011;7188;56.070;12.698;2023-07-31T01:02:50;11.03;;;2.33;;
14209;SDS011;7188;56.070;12.698;2023-07-31T01:05:17;7.23;;;2.17;;
14209;SDS011;7188;56.070;12.698;2023-07-31T01:08:05;11.13;;;1.90;;
14209;SDS011;7188;56.070;12.698;2023-07-31T01:10:44;7.83;;;2.33;;
14209;SDS011;7188;56.070;12.698;2023-07-31T01:13:15;10.30;;;2.40;;
14209;SDS011;7188;56.070;12.698;2023-07-31T01:15:42;11.03;;;2.37;;
14209;SDS011;7188;56.070;12.698;2023-07-31T01:18:08;10.70;;;2.23;;
14209;SDS011;7188;56.070;12.698;2023-07-31T01:20:34;9.23;;;2.13;;
14209;SDS011;7188;56.070;12.698;2023-07-31T01:29:17;9.93;;;2.27;;
14209;SDS011;7188;56.070;12.698;2023-07-31T01:31:38;7.97;;;1.93;;
14209;SDS011;7188;56.070;12.698;2023-07-31T01:34:06;15.47;;;3.10;;
14209;SDS011;7188;56.070;12.698;2023-07-31T01:36:35;9.83;;;2.17;;
14209;SDS011;7188;56.070;12.698;2023-07-31T01:39:01;5.10;;;2.10;;
14209;SDS011;7188;56.070;12.698;2023-07-31T01:41:30;9.80;;;2.17;;
14209;SDS011;7188;56.070;12.698;2023-07-31T01:43:56;8.07;;;1.90;;
14209;SDS011;7188;56.070;12.698;2023-07-31T01:46:21;7.67;;;1.93;;
14209;SDS011;7188;56.070;12.698;2023-07-31T01:48:47;8.00;;;2.37;;
14209;SDS011;7188;56.070;12.698;2023-07-31T01:51:13;9.03;;;2.07;;
14209;SDS011;7188;56.070;12.698;2023-07-31T01:53:38;8.30;;;2.23;;
14209;SDS011;7188;56.070;12.698;2023-07-31T01:56:04;8.47;;;2.10;;
14209;SDS011;7188;56.070;12.698;2023-07-31T01:58:30;5.37;;;1.47;;
14209;SDS011;7188;56.070;12.698;2023-07-31T02:00:55;7.00;;;2.17;;
14209;SDS011;7188;56.070;12.698;2023-07-31T02:03:21;10.93;;;2.50;;
14209;SDS011;7188;56.070;12.698;2023-07-31T02:05:47;9.57;;;1.70;;
14209;SDS011;7188;56.070;12.698;2023-07-31T02:08:14;11.13;;;1.90;;
14209;SDS011;7188;56.070;12.698;2023-07-31T02:10:40;4.97;;;1.93;;
14209;SDS011;7188;56.070;12.698;2023-07-31T02:13:06;14.17;;;2.50;;
14209;SDS011;7188;56.070;12.698;2023-07-31T02:15:47;8.37;;;1.77;;
14209;SDS011;7188;56.070;12.698;2023-07-31T02:18:13;8.13;;;1.57;;
14209;SDS011;7188;56.070;12.698;2023-07-31T02:20:38;13.80;;;2.50;;
14209;SDS011;7188;56.070;12.698;2023-07-31T02:23:04;9.50;;;3.27;;
14209;SDS011;7188;56.070;12.698;2023-07-31T02:25:30;12.43;;;2.60;;
14209;SDS011;7188;56.070;12.698;2023-07-31T02:27:55;7.07;;;2.23;;
14209;SDS011;7188;56.070;12.698;2023-07-31T02:30:21;11.20;;;2.00;;
14209;SDS011;7188;56.070;12.698;2023-07-31T02:32:47;8.93;;;2.47;;
14209;SDS011;7188;56.070;12.698;2023-07-31T02:35:12;9.80;;;2.00;;
14209;SDS011;7188;56.070;12.698;2023-07-31T02:37:40;16.33;;;3.37;;
14209;SDS011;7188;56.070;12.698;2023-07-31T02:40:12;19.07;;;2.73;;
14209;SDS011;7188;56.070;12.698;2023-07-31T02:42:38;12.07;;;2.83;;
14209;SDS011;7188;56.070;12.698;2023-07-31T02:45:04;12.97;;;2.50;;
14209;SDS011;7188;56.070;12.698;2023-07-31T02:47:30;7.13;;;2.20;;
14209;SDS011;7188;56.070;12.698;2023-07-31T02:49:56;7.87;;;1.77;;
14209;SDS011;7188;56.070;12.698;2023-07-31T02:52:21;7.33;;;2.70;;
14209;SDS011;7188;56.070;12.698;2023-07-31T02:54:47;16.17;;;3.13;;
14209;SDS011;7188;56.070;12.698;2023-07-31T02:57:12;13.10;;;2.63;;
14209;SDS011;7188;56.070;12.698;2023-07-31T02:59:38;10.90;;;2.63;;
14209;SDS011;7188;56.070;12.698;2023-07-31T03:02:04;9.30;;;2.77;;
14209;SDS011;7188;56.070;12.698;2023-07-31T03:04:29;13.07;;;2.97;;
14209;SDS011;7188;56.070;12.698;2023-07-31T03:06:55;12.17;;;2.97;;
14209;SDS011;7188;56.070;12.698;2023-07-31T03:09:21;7.23;;;2.60;;
14209;SDS011;7188;56.070;12.698;2023-07-31T03:11:46;11.33;;;2.70;;
14209;SDS011;7188;56.070;12.698;2023-07-31T03:14:12;7.70;;;2.23;;
14209;SDS011;7188;56.070;12.698;2023-07-31T03:16:37;8.10;;;2.40;;
14209;SDS011;7188;56.070;12.698;2023-07-31T03:19:03;8.77;;;2.30;;
14209;SDS011;7188;56.070;12.698;2023-07-31T03:21:29;8.77;;;2.80;;
14209;SDS011;7188;56.070;12.698;2023-07-31T03:23:54;8.53;;;2.43;;
14209;SDS011;7188;56.070;12.698;2023-07-31T03:26:20;8.43;;;2.37;;
14209;SDS011;7188;56.070;12.698;2023-07-31T03:28:46;8.63;;;2.60;;
14209;SDS011;7188;56.070;12.698;2023-07-31T03:31:11;8.20;;;3.30;;
14209;SDS011;7188;56.070;12.698;2023-07-31T03:36:28;14.07;;;2.63;;
14209;SDS011;7188;56.070;12.698;2023-07-31T03:38:54;14.93;;;3.40;;
14209;SDS011;7188;56.070;12.698;2023-07-31T03:41:20;10.10;;;3.00;;
14209;SDS011;7188;56.070;12.698;2023-07-31T03:43:49;7.80;;;2.50;;
14209;SDS011;7188;56.070;12.698;2023-07-31T03:46:17;12.40;;;2.20;;
14209;SDS011;7188;56.070;12.698;2023-07-31T03:48:42;17.53;;;2.63;;
14209;SDS011;7188;56.070;12.698;2023-07-31T03:51:08;10.67;;;3.00;;
14209;SDS011;7188;56.070;12.698;2023-07-31T03:53:34;11.70;;;2.50;;
14209;SDS011;7188;56.070;12.698;2023-07-31T03:55:59;12.77;;;3.10;;
14209;SDS011;7188;56.070;12.698;2023-07-31T03:58:25;18.27;;;2.83;;
14209;SDS011;7188;56.070;12.698;2023-07-31T04:00:51;10.93;;;2.80;;
14209;SDS011;7188;56.070;12.698;2023-07-31T04:03:16;8.73;;;2.63;;
14209;SDS011;7188;56.070;12.698;2023-07-31T04:05:42;12.43;;;2.90;;
14209;SDS011;7188;56.070;12.698;2023-07-31T04:08:07;10.70;;;2.50;;
14209;SDS011;7188;56.070;12.698;2023-07-31T04:10:33;7.90;;;2.43;;
14209;SDS011;7188;56.070;12.698;2023-07-31T04:12:59;11.40;;;2.50;;
14209;SDS011;7188;56.070;12.698;2023-07-31T04:15:27;17.83;;;3.77;;
14209;SDS011;7188;56.070;12.698;2023-07-31T04:17:53;10.87;;;3.50;;
14209;SDS011;7188;56.070;12.698;2023-07-31T04:20:19;10.90;;;2.70;;
14209;SDS011;7188;56.070;12.698;2023-07-31T04:22:44;9.10;;;2.27;;
14209;SDS011;7188;56.070;12.698;2023-07-31T04:25:10;12.20;;;3.20;;
14209;SDS011;7188;56.070;12.698;2023-07-31T04:27:36;12.23;;;2.43;;
14209;SDS011;7188;56.070;12.698;2023-07-31T04:30:01;7.67;;;2.03;;
14209;SDS011;7188;56.070;12.698;2023-07-31T04:32:28;9.77;;;1.80;;
14209;SDS011;7188;56.070;12.698;2023-07-31T04:34:54;5.43;;;1.70;;
14209;SDS011;7188;56.070;12.698;2023-07-31T04:37:20;10.70;;;1.47;;
14209;SDS011;7188;56.070;12.698;2023-07-31T04:39:46;10.57;;;2.37;;
14209;SDS011;7188;56.070;12.698;2023-07-31T04:42:13;12.53;;;2.10;;
14209;SDS011;7188;56.070;12.698;2023-07-31T04:44:38;7.53;;;1.60;;
14209;SDS011;7188;56.070;12.698;2023-07-31T04:47:04;10.50;;;1.93;;
14209;SDS011;7188;56.070;12.698;2023-07-31T04:49:30;5.93;;;1.80;;
14209;SDS011;7188;56.070;12.698;2023-07-31T04:51:56;11.70;;;1.90;;
14209;SDS011;7188;56.070;12.698;2023-07-31T04:54:22;7.00;;;1.83;;
14209;SDS011;7188;56.070;12.698;2023-07-31T04:56:47;6.97;;;1.97;;
14209;SDS011;7188;56.070;12.698;2023-07-31T04:59:13;6.37;;;1.23;;
14209;SDS011;7188;56.070;12.698;2023-07-31T05:01:39;6.40;;;1.10;;
14209;SDS011;7188;56.070;12.698;2023-07-31T05:04:04;7.20;;;1.27;;
14209;SDS011;7188;56.070;12.698;2023-07-31T05:06:30;6.70;;;1.60;;
14209;SDS011;7188;56.070;12.698;2023-07-31T05:08:55;10.93;;;1.50;;
14209;SDS011;7188;56.070;12.698;2023-07-31T05:11:21;7.80;;;1.63;;
14209;SDS011;7188;56.070;12.698;2023-07-31T05:13:47;11.50;;;1.33;;
14209;SDS011;7188;56.070;12.698;2023-07-31T05:16:12;6.30;;;1.20;;
14209;SDS011;7188;56.070;12.698;2023-07-31T05:18:38;6.07;;;1.63;;
14209;SDS011;7188;56.070;12.698;2023-07-31T05:21:04;9.33;;;1.83;;
14209;SDS011;7188;56.070;12.698;2023-07-31T05:23:29;9.10;;;1.67;;
14209;SDS011;7188;56.070;12.698;2023-07-31T05:26:02;5.00;;;1.20;;
14209;SDS011;7188;56.070;12.698;2023-07-31T05:28:31;5.70;;;1.13;;
14209;SDS011;7188;56.070;12.698;2023-07-31T05:31:03;5.90;;;1.33;;
14209;SDS011;7188;56.070;12.698;2023-07-31T05:33:29;6.70;;;1.07;;
14209;SDS011;7188;56.070;12.698;2023-07-31T05:35:55;6.40;;;1.20;;
14209;SDS011;7188;56.070;12.698;2023-07-31T05:38:21;6.97;;;1.13;;
14209;SDS011;7188;56.070;12.698;2023-07-31T05:40:47;6.40;;;1.60;;
14209;SDS011;7188;56.070;12.698;2023-07-31T05:43:13;5.03;;;1.20;;
14209;SDS011;7188;56.070;12.698;2023-07-31T05:45:39;5.80;;;1.03;;
14209;SDS011;7188;56.070;12.698;2023-07-31T05:48:08;6.43;;;1.03;;
14209;SDS011;7188;56.070;12.698;2023-07-31T05:50:34;3.17;;;0.80;;
14209;SDS011;7188;56.070;12.698;2023-07-31T05:52:59;6.03;;;1.38;;
14209;SDS011;7188;56.070;12.698;2023-07-31T05:55:25;9.13;;;1.13;;
14209;SDS011;7188;56.070;12.698;2023-07-31T05:57:54;8.50;;;1.60;;
14209;SDS011;7188;56.070;12.698;2023-07-31T06:00:20;4.87;;;1.40;;
14209;SDS011;7188;56.070;12.698;2023-07-31T06:02:47;5.63;;;1.07;;
14209;SDS011;7188;56.070;12.698;2023-07-31T06:05:12;5.43;;;1.07;;
14209;SDS011;7188;56.070;12.698;2023-07-31T06:07:38;6.23;;;1.27;;
14209;SDS011;7188;56.070;12.698;2023-07-31T06:10:04;3.55;;;0.98;;
14209;SDS011;7188;56.070;12.698;2023-07-31T06:12:34;5.57;;;1.10;;
14209;SDS011;7188;56.070;12.698;2023-07-31T06:15:00;5.33;;;1.07;;
14209;SDS011;7188;56.070;12.698;2023-07-31T06:17:25;7.30;;;1.10;;
14209;SDS011;7188;56.070;12.698;2023-07-31T06:22:48;5.43;;;1.00;;
14209;SDS011;7188;56.070;12.698;2023-07-31T06:25:13;5.33;;;0.93;;
14209;SDS011;7188;56.070;12.698;2023-07-31T06:27:39;5.23;;;0.90;;
14209;SDS011;7188;56.070;12.698;2023-07-31T06:30:05;4.88;;;0.82;;
14209;SDS011;7188;56.070;12.698;2023-07-31T06:32:31;8.30;;;0.93;;
14209;SDS011;7188;56.070;12.698;2023-07-31T06:34:57;5.40;;;1.23;;
14209;SDS011;7188;56.070;12.698;2023-07-31T06:37:23;2.67;;;0.80;;
14209;SDS011;7188;56.070;12.698;2023-07-31T06:39:48;4.53;;;1.03;;
14209;SDS011;7188;56.070;12.698;2023-07-31T06:42:14;5.75;;;1.30;;
14209;SDS011;7188;56.070;12.698;2023-07-31T06:44:39;4.57;;;1.30;;
14209;SDS011;7188;56.070;12.698;2023-07-31T06:47:24;5.13;;;1.00;;
14209;SDS011;7188;56.070;12.698;2023-07-31T06:49:49;3.80;;;1.13;;
14209;SDS011;7188;56.070;12.698;2023-07-31T06:52:15;7.33;;;1.17;;
14209;SDS011;7188;56.070;12.698;2023-07-31T06:57:29;5.60;;;1.13;;
14209;SDS011;7188;56.070;12.698;2023-07-31T06:59:54;3.37;;;0.90;;
14209;SDS011;7188;56.070;12.698;2023-07-31T07:02:20;1.93;;;0.80;;
14209;SDS011;7188;56.070;12.698;2023-07-31T07:04:46;2.63;;;0.80;;
14209;SDS011;7188;56.070;12.698;2023-07-31T07:07:11;6.20;;;0.70;;
14209;SDS011;7188;56.070;12.698;2023-07-31T07:09:37;4.97;;;1.27;;
14209;SDS011;7188;56.070;12.698;2023-07-31T07:12:04;2.20;;;0.83;;
14209;SDS011;7188;56.070;12.698;2023-07-31T07:14:29;1.07;;;0.53;;
14209;SDS011;7188;56.070;12.698;2023-07-31T07:16:55;2.53;;;0.60;;
14209;SDS011;7188;56.070;12.698;2023-07-31T07:19:21;1.87;;;0.40;;
14209;SDS011;7188;56.070;12.698;2023-07-31T07:21:47;2.50;;;0.60;;
14209;SDS011;7188;56.070;12.698;2023-07-31T07:24:12;3.40;;;0.70;;
14209;SDS011;7188;56.070;12.698;2023-07-31T07:26:38;1.73;;;0.60;;
14209;SDS011;7188;56.070;12.698;2023-07-31T07:29:03;2.90;;;0.40;;
14209;SDS011;7188;56.070;12.698;2023-07-31T07:31:32;0.87;;;0.40;;
14209;SDS011;7188;56.070;12.698;2023-07-31T07:33:59;2.45;;;0.47;;
14209;SDS011;7188;56.070;12.698;2023-07-31T07:36:27;3.00;;;0.70;;
14209;SDS011;7188;56.070;12.698;2023-07-31T07:38:53;3.47;;;0.50;;
14209;SDS011;7188;56.070;12.698;2023-07-31T07:41:18;2.05;;;0.40;;
14209;SDS011;7188;56.070;12.698;2023-07-31T07:43:44;1.95;;;0.40;;
14209;SDS011;7188;56.070;12.698;2023-07-31T07:46:10;0.98;;;0.40;;
14209;SDS011;7188;56.070;12.698;2023-07-31T07:48:35;1.40;;;0.40;;
14209;SDS011;7188;56.070;12.698;2023-07-31T07:51:01;3.58;;;1.20;;
14209;SDS011;7188;56.070;12.698;2023-07-31T07:53:26;0.88;;;0.50;;
14209;SDS011;7188;56.070;12.698;2023-07-31T07:55:52;3.20;;;0.40;;
14209;SDS011;7188;56.070;12.698;2023-07-31T07:58:17;1.37;;;0.40;;
14209;SDS011;7188;56.070;12.698;2023-07-31T08:00:48;2.40;;;0.32;;
14209;SDS011;7188;56.070;12.698;2023-07-31T08:03:15;2.50;;;0.70;;
14209;SDS011;7188;56.070;12.698;2023-07-31T08:05:42;0.82;;;0.50;;
14209;SDS011;7188;56.070;12.698;2023-07-31T08:08:07;5.97;;;0.85;;
14209;SDS011;7188;56.070;12.698;2023-07-31T08:10:34;3.75;;;1.00;;
14209;SDS011;7188;56.070;12.698;2023-07-31T08:13:00;2.60;;;1.10;;
14209;SDS011;7188;56.070;12.698;2023-07-31T08:15:25;2.50;;;0.80;;
14209;SDS011;7188;56.070;12.698;2023-07-31T08:17:51;1.92;;;0.57;;
14209;SDS011;7188;56.070;12.698;2023-07-31T08:20:16;5.25;;;0.70;;
14209;SDS011;7188;56.070;12.698;2023-07-31T08:22:42;4.80;;;0.88;;
14209;SDS011;7188;56.070;12.698;2023-07-31T08:25:08;3.13;;;0.63;;
14209;SDS011;7188;56.070;12.698;2023-07-31T08:27:33;2.97;;;0.80;;
14209;SDS011;7188;56.070;12.698;2023-07-31T08:29:59;1.95;;;0.80;;
14209;SDS011;7188;56.070;12.698;2023-07-31T08:32:25;1.65;;;0.82;;
14209;SDS011;7188;56.070;12.698;2023-07-31T08:34:50;3.97;;;0.88;;
14209;SDS011;7188;56.070;12.698;2023-07-31T08:37:16;4.93;;;1.25;;
14209;SDS011;7188;56.070;12.698;2023-07-31T08:39:41;3.85;;;0.70;;
14209;SDS011;7188;56.070;12.698;2023-07-31T08:42:07;3.15;;;0.85;;
14209;SDS011;7188;56.070;12.698;2023-07-31T08:44:34;5.40;;;1.13;;
14209;SDS011;7188;56.070;12.698;2023-07-31T08:47:00;3.45;;;0.80;;
14209;SDS011;7188;56.070;12.698;2023-07-31T08:49:26;5.07;;;1.25;;
14209;SDS011;7188;56.070;12.698;2023-07-31T08:51:54;4.45;;;0.88;;
14209;SDS011;7188;56.070;12.698;2023-07-31T08:54:20;4.95;;;0.80;;
14209;SDS011;7188;56.070;12.698;2023-07-31T08:56:46;2.53;;;0.90;;
14209;SDS011;7188;56.070;12.698;2023-07-31T08:59:11;1.75;;;0.60;;
14209;SDS011;7188;56.070;12.698;2023-07-31T09:01:41;2.95;;;0.60;;
14209;SDS011;7188;56.070;12.698;2023-07-31T09:04:12;3.03;;;0.73;;
14209;SDS011;7188;56.070;12.698;2023-07-31T09:06:39;3.35;;;0.60;;
14209;SDS011;7188;56.070;12.698;2023-07-31T09:09:05;2.85;;;0.90;;
14209;SDS011;7188;56.070;12.698;2023-07-31T09:11:31;2.35;;;0.50;;
14209;SDS011;7188;56.070;12.698;2023-07-31T09:13:58;2.63;;;0.65;;
14209;SDS011;7188;56.070;12.698;2023-07-31T09:16:27;2.67;;;0.60;;
14209;SDS011;7188;56.070;12.698;2023-07-31T09:18:57;4.00;;;0.73;;
14209;SDS011;7188;56.070;12.698;2023-07-31T09:21:23;1.90;;;0.70;;
14209;SDS011;7188;56.070;12.698;2023-07-31T09:23:50;1.58;;;0.70;;
14209;SDS011;7188;56.070;12.698;2023-07-31T09:26:31;3.55;;;0.80;;
14209;SDS011;7188;56.070;12.698;2023-07-31T09:28:57;1.65;;;0.50;;
14209;SDS011;7188;56.070;12.698;2023-07-31T09:34:06;1.75;;;0.60;;
14209;SDS011;7188;56.070;12.698;2023-07-31T09:36:32;1.65;;;0.60;;
14209;SDS011;7188;56.070;12.698;2023-07-31T09:39:02;2.63;;;1.05;;
14209;SDS011;7188;56.070;12.698;2023-07-31T09:41:29;1.92;;;0.80;;
14209;SDS011;7188;56.070;12.698;2023-07-31T09:43:55;2.03;;;0.73;;
14209;SDS011;7188;56.070;12.698;2023-07-31T09:46:21;2.72;;;0.50;;
14209;SDS011;7188;56.070;12.698;2023-07-31T09:48:47;1.30;;;0.60;;
14209;SDS011;7188;56.070;12.698;2023-07-31T09:51:12;3.13;;;0.60;;
14209;SDS011;7188;56.070;12.698;2023-07-31T09:53:38;2.22;;;0.50;;
14209;SDS011;7188;56.070;12.698;2023-07-31T09:56:04;1.30;;;0.60;;
14209;SDS011;7188;56.070;12.698;2023-07-31T09:58:30;4.00;;;0.75;;
14209;SDS011;7188;56.070;12.698;2023-07-31T10:00:59;1.05;;;0.50;;
14209;SDS011;7188;56.070;12.698;2023-07-31T10:03:27;2.55;;;0.68;;
14209;SDS011;7188;56.070;12.698;2023-07-31T10:05:59;1.90;;;0.57;;
14209;SDS011;7188;56.070;12.698;2023-07-31T10:08:27;2.25;;;0.50;;
14209;SDS011;7188;56.070;12.698;2023-07-31T10:10:55;1.02;;;0.50;;
14209;SDS011;7188;56.070;12.698;2023-07-31T10:13:24;6.10;;;0.93;;
14209;SDS011;7188;56.070;12.698;2023-07-31T10:15:51;3.72;;;0.65;;
14209;SDS011;7188;56.070;12.698;2023-07-31T10:18:17;1.13;;;0.70;;
14209;SDS011;7188;56.070;12.698;2023-07-31T10:20:43;2.20;;;0.70;;
14209;SDS011;7188;56.070;12.698;2023-07-31T10:23:10;1.67;;;0.68;;
14209;SDS011;7188;56.070;12.698;2023-07-31T10:25:36;1.50;;;0.60;;
14209;SDS011;7188;56.070;12.698;2023-07-31T10:28:03;1.70;;;0.60;;
14209;SDS011;7188;56.070;12.698;2023-07-31T10:30:29;2.28;;;0.95;;
14209;SDS011;7188;56.070;12.698;2023-07-31T10:32:57;2.53;;;0.60;;
14209;SDS011;7188;56.070;12.698;2023-07-31T10:35:23;2.35;;;0.57;;
14209;SDS011;7188;56.070;12.698;2023-07-31T10:37:49;4.68;;;0.50;;
14209;SDS011;7188;56.070;12.698;2023-07-31T10:40:19;1.65;;;0.73;;
14209;SDS011;7188;56.070;12.698;2023-07-31T10:42:57;2.85;;;1.05;;
14209;SDS011;7188;56.070;12.698;2023-07-31T10:45:30;1.55;;;0.50;;
14209;SDS011;7188;56.070;12.698;2023-07-31T10:48:14;5.32;;;0.60;;
14209;SDS011;7188;56.070;12.698;2023-07-31T10:53:29;4.13;;;0.63;;
14209;SDS011;7188;56.070;12.698;2023-07-31T10:55:59;3.35;;;0.68;;
14209;SDS011;7188;56.070;12.698;2023-07-31T10:58:25;3.78;;;0.98;;
14209;SDS011;7188;56.070;12.698;2023-07-31T11:03:49;2.45;;;0.80;;
14209;SDS011;7188;56.070;12.698;2023-07-31T11:06:17;2.22;;;0.82;;
14209;SDS011;7188;56.070;12.698;2023-07-31T11:08:44;2.58;;;0.77;;
14209;SDS011;7188;56.070;12.698;2023-07-31T11:11:12;2.28;;;0.60;;
14209;SDS011;7188;56.070;12.698;2023-07-31T11:13:39;3.05;;;0.90;;
14209;SDS011;7188;56.070;12.698;2023-07-31T11:16:05;4.50;;;1.20;;
14209;SDS011;7188;56.070;12.698;2023-07-31T11:18:31;3.00;;;1.38;;
14209;SDS011;7188;56.070;12.698;2023-07-31T11:20:57;3.85;;;1.02;;
14209;SDS011;7188;56.070;12.698;2023-07-31T11:23:23;2.80;;;1.05;;
14209;SDS011;7188;56.070;12.698;2023-07-31T11:25:49;4.85;;;0.95;;
14209;SDS011;7188;56.070;12.698;2023-07-31T11:28:16;2.88;;;0.82;;
14209;SDS011;7188;56.070;12.698;2023-07-31T11:30:44;2.67;;;0.63;;
14209;SDS011;7188;56.070;12.698;2023-07-31T11:33:11;2.55;;;0.95;;
14209;SDS011;7188;56.070;12.698;2023-07-31T11:35:44;2.20;;;1.20;;
14209;SDS011;7188;56.070;12.698;2023-07-31T11:38:12;2.03;;;0.60;;
14209;SDS011;7188;56.070;12.698;2023-07-31T11:40:45;1.30;;;0.60;;
14209;SDS011;7188;56.070;12.698;2023-07-31T11:43:11;1.23;;;0.55;;
14209;SDS011;7188;56.070;12.698;2023-07-31T11:45:41;2.50;;;0.65;;
14209;SDS011;7188;56.070;12.698;2023-07-31T11:48:07;2.30;;;0.60;;
14209;SDS011;7188;56.070;12.698;2023-07-31T11:50:33;1.70;;;0.63;;
14209;SDS011;7188;56.070;12.698;2023-07-31T11:53:01;4.30;;;0.70;;
14209;SDS011;7188;56.070;12.698;2023-07-31T11:55:31;1.35;;;0.60;;
14209;SDS011;7188;56.070;12.698;2023-07-31T11:57:57;2.65;;;0.80;;
14209;SDS011;7188;56.070;12.698;2023-07-31T12:00:23;4.03;;;1.10;;
14209;SDS011;7188;56.070;12.698;2023-07-31T12:02:50;12.85;;;10.65;;
14209;SDS011;7188;56.070;12.698;2023-07-31T12:05:19;2.55;;;1.08;;
14209;SDS011;7188;56.070;12.698;2023-07-31T12:07:51;6.00;;;1.27;;
14209;SDS011;7188;56.070;12.698;2023-07-31T12:10:37;4.10;;;0.80;;
14209;SDS011;7188;56.070;12.698;2023-07-31T12:13:07;1.98;;;1.13;;
14209;SDS011;7188;56.070;12.698;2023-07-31T12:15:39;1.40;;;1.08;;
14209;SDS011;7188;56.070;12.698;2023-07-31T12:18:12;2.15;;;0.80;;
14209;SDS011;7188;56.070;12.698;2023-07-31T12:20:44;1.63;;;0.73;;
14209;SDS011;7188;56.070;12.698;2023-07-31T12:23:18;3.92;;;1.35;;
14209;SDS011;7188;56.070;12.698;2023-07-31T12:25:54;3.80;;;0.80;;
14209;SDS011;7188;56.070;12.698;2023-07-31T12:28:47;1.00;;;0.70;;
14209;SDS011;7188;56.070;12.698;2023-07-31T12:31:15;2.97;;;0.90;;
14209;SDS011;7188;56.070;12.698;2023-07-31T12:33:45;2.60;;;0.50;;
14209;SDS011;7188;56.070;12.698;2023-07-31T12:36:12;1.20;;;0.75;;
14209;SDS011;7188;56.070;12.698;2023-07-31T12:38:40;4.50;;;0.60;;
14209;SDS011;7188;56.070;12.698;2023-07-31T12:41:06;3.72;;;0.68;;
14209;SDS011;7188;56.070;12.698;2023-07-31T12:43:36;3.50;;;0.80;;
14209;SDS011;7188;56.070;12.698;2023-07-31T12:46:02;2.05;;;0.63;;
14209;SDS011;7188;56.070;12.698;2023-07-31T12:48:28;2.88;;;0.68;;
14209;SDS011;7188;56.070;12.698;2023-07-31T12:50:54;2.28;;;0.68;;
14209;SDS011;7188;56.070;12.698;2023-07-31T12:53:20;1.33;;;0.50;;
14209;SDS011;7188;56.070;12.698;2023-07-31T12:55:46;1.55;;;0.73;;
14209;SDS011;7188;56.070;12.698;2023-07-31T12:58:12;1.70;;;0.63;;
14209;SDS011;7188;56.070;12.698;2023-07-31T13:00:50;1.58;;;0.52;;
14209;SDS011;7188;56.070;12.698;2023-07-31T13:03:15;0.93;;;0.50;;
14209;SDS011;7188;56.070;12.698;2023-07-31T13:05:41;1.40;;;0.73;;
14209;SDS011;7188;56.070;12.698;2023-07-31T13:08:07;2.20;;;0.52;;
14209;SDS011;7188;56.070;12.698;2023-07-31T13:10:32;1.52;;;0.50;;
14209;SDS011;7188;56.070;12.698;2023-07-31T13:12:58;1.77;;;0.55;;
14209;SDS011;7188;56.070;12.698;2023-07-31T13:15:23;2.10;;;0.50;;
14209;SDS011;7188;56.070;12.698;2023-07-31T13:17:49;0.95;;;0.50;;
14209;SDS011;7188;56.070;12.698;2023-07-31T13:20:15;0.55;;;0.50;;
14209;SDS011;7188;56.070;12.698;2023-07-31T13:22:40;1.90;;;0.77;;
14209;SDS011;7188;56.070;12.698;2023-07-31T13:25:06;2.05;;;0.70;;
14209;SDS011;7188;56.070;12.698;2023-07-31T13:27:32;2.58;;;0.80;;
14209;SDS011;7188;56.070;12.698;2023-07-31T13:29:59;2.83;;;1.00;;
14209;SDS011;7188;56.070;12.698;2023-07-31T13:32:24;1.67;;;0.75;;
14209;SDS011;7188;56.070;12.698;2023-07-31T13:34:51;1.52;;;0.55;;
14209;SDS011;7188;56.070;12.698;2023-07-31T13:37:31;2.28;;;0.50;;
14209;SDS011;7188;56.070;12.698;2023-07-31T13:39:57;3.50;;;0.70;;
14209;SDS011;7188;56.070;12.698;2023-07-31T13:42:23;2.67;;;0.60;;
14209;SDS011;7188;56.070;12.698;2023-07-31T13:44:48;3.20;;;0.60;;
14209;SDS011;7188;56.070;12.698;2023-07-31T13:47:14;6.00;;;0.82;;
14209;SDS011;7188;56.070;12.698;2023-07-31T13:49:40;2.22;;;0.93;;
14209;SDS011;7188;56.070;12.698;2023-07-31T13:52:08;0.70;;;0.60;;
14209;SDS011;7188;56.070;12.698;2023-07-31T13:54:33;0.80;;;0.45;;
14209;SDS011;7188;56.070;12.698;2023-07-31T13:56:59;3.25;;;0.70;;
14209;SDS011;7188;56.070;12.698;2023-07-31T13:59:25;1.20;;;0.43;;
14209;SDS011;7188;56.070;12.698;2023-07-31T14:01:51;1.80;;;0.50;;
14209;SDS011;7188;56.070;12.698;2023-07-31T14:04:17;2.65;;;0.47;;
14209;SDS011;7188;56.070;12.698;2023-07-31T14:06:43;0.85;;;0.30;;
14209;SDS011;7188;56.070;12.698;2023-07-31T14:09:09;0.57;;;0.40;;
14209;SDS011;7188;56.070;12.698;2023-07-31T14:11:34;1.27;;;0.50;;
14209;SDS011;7188;56.070;12.698;2023-07-31T14:14:00;0.85;;;0.22;;
14209;SDS011;7188;56.070;12.698;2023-07-31T14:16:29;0.88;;;0.38;;
14209;SDS011;7188;56.070;12.698;2023-07-31T14:18:55;1.08;;;0.50;;
14209;SDS011;7188;56.070;12.698;2023-07-31T14:21:20;0.98;;;0.45;;
14209;SDS011;7188;56.070;12.698;2023-07-31T14:23:46;0.82;;;0.50;;
14209;SDS011;7188;56.070;12.698;2023-07-31T14:26:12;0.35;;;0.30;;
14209;SDS011;7188;56.070;12.698;2023-07-31T14:28:38;3.28;;;0.52;;
14209;SDS011;7188;56.070;12.698;2023-07-31T14:31:03;2.75;;;0.35;;
14209;SDS011;7188;56.070;12.698;2023-07-31T14:33:29;1.15;;;0.50;;
14209;SDS011;7188;56.070;12.698;2023-07-31T14:35:55;0.90;;;0.30;;
14209;SDS011;7188;56.070;12.698;2023-07-31T14:38:20;1.95;;;0.68;;
14209;SDS011;7188;56.070;12.698;2023-07-31T14:40:46;1.35;;;0.35;;
14209;SDS011;7188;56.070;12.698;2023-07-31T14:43:12;2.45;;;0.40;;
14209;SDS011;7188;56.070;12.698;2023-07-31T14:45:38;2.38;;;0.55;;
14209;SDS011;7188;56.070;12.698;2023-07-31T14:48:03;1.98;;;0.68;;
14209;SDS011;7188;56.070;12.698;2023-07-31T14:50:29;0.80;;;0.47;;
14209;SDS011;7188;56.070;12.698;2023-07-31T14:52:55;1.75;;;0.55;;
14209;SDS011;7188;56.070;12.698;2023-07-31T14:55:20;1.75;;;0.55;;
14209;SDS011;7188;56.070;12.698;2023-07-31T14:57:46;1.33;;;0.40;;
14209;SDS011;7188;56.070;12.698;2023-07-31T15:00:12;2.53;;;0.50;;
14209;SDS011;7188;56.070;12.698;2023-07-31T15:02:40;2.05;;;0.45;;
14209;SDS011;7188;56.070;12.698;2023-07-31T15:05:06;2.85;;;0.50;;
14209;SDS011;7188;56.070;12.698;2023-07-31T15:07:32;0.82;;;0.40;;
14209;SDS011;7188;56.070;12.698;2023-07-31T15:09:59;2.97;;;1.05;;